createdAt,value
2023-03-05T08:45:58.188Z,33.83
2023-03-05T08:48:26.300Z,39.27
2023-03-05T08:50:54.671Z,32.60
2023-03-05T08:53:23.048Z,35.70
2023-03-05T08:55:55.618Z,30.83
2023-03-05T08:58:23.709Z,28.33
2023-03-05T09:00:52.224Z,29.70
2023-03-05T09:03:21.517Z,50.07
2023-03-05T09:05:49.711Z,32.90
2023-03-05T09:08:17.606Z,40.57
2023-03-05T09:10:46.562Z,33.97
2023-03-05T09:13:14.656Z,27.70
2023-03-05T09:15:42.687Z,34.67
2023-03-05T09:18:10.754Z,36.17
2023-03-05T09:20:40.100Z,27.80
2023-03-05T09:23:08.003Z,34.53
2023-03-05T09:25:36.280Z,36.43
2023-03-05T09:28:04.263Z,36.90
2023-03-05T09:30:32.317Z,36.07
2023-03-05T09:33:00.358Z,27.90
2023-03-05T09:35:28.453Z,30.33
2023-03-05T09:37:57.997Z,43.20
2023-03-05T09:40:27.033Z,35.63
2023-03-05T09:43:03.826Z,35.67
2023-03-05T09:45:38.074Z,32.20
2023-03-05T09:48:16.978Z,27.80
2023-03-05T09:50:50.475Z,28.37
2023-03-05T09:53:35.188Z,35.70
2023-03-05T09:56:06.582Z,34.40
2023-03-05T09:58:38.478Z,34.37
2023-03-05T10:01:09.946Z,32.17
2023-03-05T10:03:49.937Z,37.50
2023-03-05T10:06:22.806Z,36.27
2023-03-05T10:08:57.212Z,29.70
2023-03-05T10:11:39.187Z,29.97
2023-03-05T10:14:14.057Z,30.10
2023-03-05T10:16:54.107Z,30.03
2023-03-05T10:19:42.172Z,38.30
2023-03-05T10:22:17.208Z,43.00
2023-03-05T10:24:55.641Z,45.67
2023-03-05T10:27:37.978Z,35.88
2023-03-05T10:30:19.940Z,31.80
2023-03-05T10:32:55.724Z,38.83
2023-03-05T10:35:48.900Z,33.40
2023-03-05T10:38:43.818Z,31.80
2023-03-05T10:41:22.210Z,33.63
2023-03-05T10:43:57.216Z,31.27
2023-03-05T10:46:32.789Z,33.67
2023-03-05T10:49:06.704Z,33.87
2023-03-05T10:51:38.196Z,32.10
2023-03-05T10:54:13.290Z,31.57
2023-03-05T10:56:42.744Z,34.50
2023-03-05T10:59:10.897Z,30.53
2023-03-05T11:01:39.038Z,36.60
2023-03-05T11:04:08.529Z,28.00
2023-03-05T11:06:39.804Z,27.90
2023-03-05T11:09:20.095Z,31.10
2023-03-05T11:12:06.570Z,36.33
2023-03-05T11:14:36.037Z,39.17
2023-03-05T11:17:23.552Z,35.60
2023-03-05T11:19:51.596Z,30.90
2023-03-05T11:22:21.502Z,34.10
2023-03-05T11:25:07.245Z,31.60
2023-03-05T11:27:39.279Z,35.63
2023-03-05T11:30:21.111Z,27.53
2023-03-05T11:32:49.310Z,30.30
2023-03-05T11:35:32.280Z,25.03
2023-03-05T11:38:05.452Z,32.87
2023-03-05T11:40:36.114Z,26.23
2023-03-05T11:43:06.171Z,28.00
2023-03-05T11:45:35.460Z,28.70
2023-03-05T11:48:09.588Z,26.13
2023-03-05T11:50:42.141Z,29.93
2023-03-05T11:53:16.021Z,27.40
2023-03-05T11:55:46.735Z,34.53
2023-03-05T11:58:27.673Z,27.53
2023-03-05T12:00:56.129Z,26.80
2023-03-05T12:03:27.780Z,25.60
2023-03-05T12:05:58.574Z,27.70
2023-03-05T12:08:30.696Z,24.33
2023-03-05T12:11:00.818Z,25.47
2023-03-05T12:13:35.811Z,25.20
2023-03-05T12:16:13.757Z,29.33
2023-03-05T12:19:01.380Z,23.53
2023-03-05T12:21:36.997Z,21.67
2023-03-05T12:24:28.298Z,29.77
2023-03-05T12:27:07.401Z,23.00
2023-03-05T12:29:43.128Z,24.80
2023-03-05T12:32:53.665Z,25.10
2023-03-05T12:35:26.772Z,20.43
2023-03-05T12:38:32.509Z,20.77
2023-03-05T12:41:42.954Z,22.23
2023-03-05T12:44:19.038Z,30.43
2023-03-05T12:47:19.445Z,21.20
2023-03-05T12:49:49.340Z,20.67
2023-03-05T12:52:26.637Z,21.47
2023-03-05T12:55:20.115Z,21.37
2023-03-05T12:57:50.975Z,31.43
2023-03-05T13:00:26.480Z,16.90
2023-03-05T13:02:59.876Z,21.97
2023-03-05T13:05:30.784Z,28.50
2023-03-05T13:08:15.792Z,25.77
2023-03-05T13:10:44.859Z,22.20
2023-03-05T13:13:15.911Z,19.13
2023-03-05T13:15:47.086Z,15.97
2023-03-05T13:18:21.562Z,15.43
2023-03-05T13:20:56.182Z,24.37
2023-03-05T13:23:26.687Z,16.30
2023-03-05T13:26:00.876Z,21.50
2023-03-05T13:28:29.763Z,20.97
2023-03-05T13:30:59.617Z,16.90
2023-03-05T13:33:31.091Z,18.17
2023-03-05T13:35:59.632Z,27.23
2023-03-05T13:38:33.502Z,23.93
2023-03-05T13:41:20.198Z,21.50
2023-03-05T13:43:50.342Z,28.73
2023-03-05T13:46:29.433Z,25.00
2023-03-05T13:49:17.887Z,16.37
2023-03-05T13:51:48.129Z,22.40
2023-03-05T13:54:18.881Z,21.90
2023-03-05T13:56:52.526Z,22.45
2023-03-05T13:59:22.842Z,21.77
2023-03-05T14:01:52.532Z,21.25
2023-03-05T14:04:24.765Z,23.23
2023-03-05T14:06:58.336Z,21.27
2023-03-05T14:09:29.050Z,23.50
2023-03-05T14:11:59.514Z,20.83
2023-03-05T14:14:29.587Z,22.60
2023-03-05T14:17:17.844Z,28.33
2023-03-05T14:19:47.134Z,26.43
2023-03-05T14:22:31.395Z,22.47
2023-03-05T14:24:59.347Z,22.33
2023-03-05T14:27:28.362Z,23.23
2023-03-05T14:29:56.428Z,24.37
2023-03-05T14:32:29.419Z,27.00
2023-03-05T14:35:00.589Z,21.43
2023-03-05T14:37:34.226Z,21.67
2023-03-05T14:40:06.410Z,24.23
2023-03-05T14:42:38.786Z,23.53
2023-03-05T14:45:14.073Z,27.83
2023-03-05T14:47:42.380Z,23.07
2023-03-05T14:50:16.832Z,23.67
2023-03-05T14:52:45.169Z,24.50
2023-03-05T14:55:16.646Z,19.30
2023-03-05T14:57:45.165Z,25.23
2023-03-05T15:00:18.090Z,23.90
2023-03-05T15:02:46.495Z,32.10
2023-03-05T15:05:16.356Z,23.97
2023-03-05T15:07:46.705Z,26.00
2023-03-05T15:10:16.905Z,24.53
2023-03-05T15:12:45.173Z,24.27
2023-03-05T15:15:15.573Z,24.23
2023-03-05T15:17:47.446Z,21.03
2023-03-05T15:20:19.226Z,25.83
2023-03-05T15:22:47.361Z,26.17
2023-03-05T15:25:15.664Z,24.73
2023-03-05T15:27:43.671Z,24.23
2023-03-05T15:30:22.222Z,26.60
2023-03-05T15:32:50.304Z,21.87
2023-03-05T15:35:20.004Z,28.47
2023-03-05T15:37:48.014Z,29.13
2023-03-05T15:40:16.418Z,26.53
2023-03-05T15:42:44.436Z,26.60
2023-03-05T15:45:12.584Z,23.80
2023-03-05T15:47:40.680Z,22.57
2023-03-05T15:50:09.800Z,22.27
2023-03-05T15:52:39.350Z,21.80
2023-03-05T15:55:08.429Z,24.02
2023-03-05T15:57:38.497Z,24.90
2023-03-05T16:00:08.647Z,20.77
2023-03-05T16:02:37.018Z,21.07
2023-03-05T16:05:05.909Z,19.40
2023-03-05T16:07:36.630Z,17.40
2023-03-05T16:10:07.132Z,23.50
2023-03-05T16:12:42.745Z,18.87
2023-03-05T16:15:12.642Z,24.00
2023-03-05T16:17:44.095Z,13.53
2023-03-05T16:20:14.302Z,16.00
2023-03-05T16:22:42.329Z,20.73
2023-03-05T16:25:11.793Z,16.47
2023-03-05T16:27:39.709Z,16.23
2023-03-05T16:30:09.365Z,20.03
2023-03-05T16:32:38.839Z,16.80
2023-03-05T16:35:07.686Z,17.07
2023-03-05T16:37:35.555Z,14.67
2023-03-05T16:40:03.621Z,12.50
2023-03-05T16:42:33.784Z,18.47
2023-03-05T16:45:01.736Z,17.67
2023-03-05T16:47:29.830Z,12.57
2023-03-05T16:49:57.818Z,18.00
2023-03-05T16:52:25.986Z,16.87
2023-03-05T16:54:53.951Z,16.00
2023-03-05T16:57:23.934Z,17.50
2023-03-05T16:59:54.280Z,16.93
2023-03-05T17:02:22.349Z,20.87
2023-03-05T17:04:50.412Z,17.83
2023-03-05T17:07:18.644Z,18.77
2023-03-05T17:09:47.901Z,18.40
2023-03-05T17:12:15.888Z,12.83
2023-03-05T17:14:44.067Z,18.00
2023-03-05T17:17:14.026Z,14.50
2023-03-05T17:19:42.126Z,15.40
2023-03-05T17:22:12.584Z,16.90
2023-03-05T17:24:42.874Z,19.60
2023-03-05T17:27:12.972Z,17.03
2023-03-05T17:29:41.078Z,16.60
2023-03-05T17:32:09.486Z,16.63
2023-03-05T17:34:38.793Z,14.17
2023-03-05T17:37:06.888Z,18.23
2023-03-05T17:39:35.287Z,15.10
2023-03-05T17:42:03.275Z,17.83
2023-03-05T17:44:31.318Z,14.30
2023-03-05T17:46:59.224Z,15.40
2023-03-05T17:49:27.343Z,19.40
2023-03-05T17:51:57.517Z,17.03
2023-03-05T17:54:25.440Z,15.37
2023-03-05T17:56:55.703Z,17.13
2023-03-05T17:59:24.260Z,16.50
2023-03-05T18:01:52.240Z,15.97
2023-03-05T18:04:20.550Z,12.70
2023-03-05T18:06:48.888Z,12.53
2023-03-05T18:09:18.210Z,11.90
2023-03-05T18:11:46.089Z,20.37
2023-03-05T18:14:16.871Z,16.97
2023-03-05T18:16:45.368Z,14.20
2023-03-05T18:19:13.516Z,17.77
2023-03-05T18:21:42.422Z,16.13
2023-03-05T18:24:10.768Z,16.17
2023-03-05T18:26:40.091Z,18.77
2023-03-05T18:29:08.123Z,14.73
2023-03-05T18:31:36.415Z,16.42
2023-03-05T18:34:04.492Z,17.73
2023-03-05T18:36:32.553Z,13.43
2023-03-05T18:39:00.620Z,15.93
2023-03-05T18:41:30.911Z,13.57
2023-03-05T18:44:00.348Z,15.83
2023-03-05T18:46:28.402Z,13.07
2023-03-05T18:48:56.459Z,12.30
2023-03-05T18:51:25.975Z,15.90
2023-03-05T18:53:55.193Z,15.77
2023-03-05T18:56:23.283Z,14.90
2023-03-05T18:58:51.428Z,16.25
2023-03-05T19:01:21.792Z,17.90
2023-03-05T19:03:50.202Z,18.23
2023-03-05T19:06:18.686Z,14.77
2023-03-05T19:08:47.668Z,18.00
2023-03-05T19:11:17.119Z,18.17
2023-03-05T19:13:49.156Z,15.20
2023-03-05T19:16:19.063Z,15.50
2023-03-05T19:18:57.618Z,14.13
2023-03-05T19:21:25.562Z,15.23
2023-03-05T19:23:53.436Z,15.02
2023-03-05T19:26:21.626Z,17.80
2023-03-05T19:28:49.541Z,17.07
2023-03-05T19:31:17.760Z,15.30
2023-03-05T19:33:45.821Z,21.10
2023-03-05T19:36:15.158Z,19.23
2023-03-05T19:38:44.050Z,13.57
2023-03-05T19:41:13.112Z,14.00
2023-03-05T19:43:41.239Z,15.70
2023-03-05T19:46:09.565Z,12.27
2023-03-05T19:48:38.201Z,14.50
2023-03-05T19:51:10.554Z,17.73
2023-03-05T19:53:40.249Z,21.73
2023-03-05T19:56:11.471Z,14.07
2023-03-05T19:58:45.363Z,20.27
2023-03-05T20:01:15.452Z,16.90
2023-03-05T20:03:45.179Z,15.00
2023-03-05T20:06:13.108Z,15.37
2023-03-05T20:08:42.481Z,18.80
2023-03-05T20:11:13.385Z,17.10
2023-03-05T20:13:42.152Z,17.73
2023-03-05T20:16:16.707Z,16.03
2023-03-05T20:18:45.124Z,20.67
2023-03-05T20:21:21.650Z,19.03
2023-03-05T20:23:50.970Z,16.50
2023-03-05T20:26:19.384Z,17.65
2023-03-05T20:28:48.248Z,21.03
2023-03-05T20:31:20.145Z,19.93
2023-03-05T20:33:48.106Z,20.40
2023-03-05T20:36:16.184Z,15.60
2023-03-05T20:38:45.726Z,16.00
2023-03-05T20:41:17.033Z,19.33
2023-03-05T20:43:47.617Z,20.83
2023-03-05T20:46:17.047Z,17.05
2023-03-05T20:48:45.749Z,20.52
2023-03-05T20:51:18.716Z,21.83
2023-03-05T20:53:46.878Z,19.43
2023-03-05T20:56:16.138Z,20.40
2023-03-05T20:58:44.117Z,22.83
2023-03-05T21:01:12.742Z,17.00
2023-03-05T21:03:41.719Z,17.83
2023-03-05T21:06:10.117Z,21.00
2023-03-05T21:08:38.030Z,20.50
2023-03-05T21:11:08.166Z,21.40
2023-03-05T21:13:38.286Z,19.23
2023-03-05T21:16:11.061Z,20.33
2023-03-05T21:18:39.049Z,18.47
2023-03-05T21:21:07.725Z,22.27
2023-03-05T21:23:36.066Z,23.60
2023-03-05T21:26:04.552Z,21.60
2023-03-05T21:28:33.283Z,25.43
2023-03-05T21:31:08.643Z,23.60
2023-03-05T21:33:36.737Z,19.20
2023-03-05T21:36:05.150Z,18.20
2023-03-05T21:38:34.204Z,18.90
2023-03-05T21:41:02.965Z,19.75
2023-03-05T21:43:32.039Z,24.20
2023-03-05T21:46:03.385Z,23.30
2023-03-05T21:48:32.376Z,26.77
2023-03-05T21:51:00.442Z,23.13
2023-03-05T21:53:28.606Z,22.20
2023-03-05T21:56:05.089Z,21.85
2023-03-05T21:58:35.171Z,22.07
2023-03-05T22:01:04.683Z,26.10
2023-03-05T22:03:32.697Z,20.33
2023-03-05T22:06:01.027Z,18.23
2023-03-05T22:08:29.807Z,20.83
2023-03-05T22:10:57.974Z,19.40
2023-03-05T22:13:25.901Z,24.37
2023-03-05T22:15:55.840Z,18.03
2023-03-05T22:18:28.105Z,21.40
2023-03-05T22:20:56.963Z,19.58
